createdAt,value
2018-07-21T00:01:07.743Z,5.78
2018-07-21T00:03:37.136Z,5.50
2018-07-21T00:06:06.389Z,5.75
2018-07-21T00:08:35.610Z,6.37
2018-07-21T00:11:04.856Z,5.58
2018-07-21T00:13:34.061Z,5.50
2018-07-21T00:16:03.429Z,6.20
2018-07-21T00:18:32.804Z,6.67
2018-07-21T00:21:02.104Z,6.00
2018-07-21T00:23:31.355Z,5.08
2018-07-21T00:26:00.660Z,5.47
2018-07-21T00:28:29.877Z,5.28
2018-07-21T00:30:59.090Z,5.67
2018-07-21T00:33:28.297Z,5.50
2018-07-21T00:35:57.540Z,5.65
2018-07-21T00:38:26.717Z,6.85
2018-07-21T00:40:55.948Z,5.92
2018-07-21T00:43:25.113Z,5.72
2018-07-21T00:45:54.367Z,5.50
2018-07-21T00:48:23.590Z,5.97
2018-07-21T00:50:52.813Z,6.03
2018-07-21T00:53:22.156Z,5.45
2018-07-21T00:55:51.406Z,8.30
2018-07-21T00:58:20.608Z,5.17
2018-07-21T01:00:49.833Z,4.97
2018-07-21T01:03:19.049Z,5.87
2018-07-21T01:05:48.265Z,6.08
2018-07-21T01:08:17.465Z,7.42
2018-07-21T01:10:46.725Z,5.33
2018-07-21T01:13:16.094Z,6.67
2018-07-21T01:15:45.374Z,5.50
2018-07-21T01:18:14.629Z,6.08
2018-07-21T01:20:43.872Z,6.00
2018-07-21T01:23:13.080Z,7.47
2018-07-21T01:25:42.535Z,5.15
2018-07-21T01:28:11.729Z,5.70
2018-07-21T01:30:41.003Z,6.50
2018-07-21T01:33:10.212Z,5.10
2018-07-21T01:35:39.446Z,7.37
2018-07-21T01:38:08.653Z,6.15
2018-07-21T01:40:37.880Z,5.47
2018-07-21T01:43:07.081Z,6.00
2018-07-21T01:45:36.310Z,5.58
2018-07-21T01:48:29.078Z,5.85
2018-07-21T01:50:58.276Z,5.62
2018-07-21T01:53:42.756Z,5.35
2018-07-21T01:56:13.719Z,6.03
2018-07-21T01:58:46.529Z,6.03
2018-07-21T02:01:18.501Z,5.97
2018-07-21T02:03:55.136Z,6.95
2018-07-21T02:06:28.377Z,7.33
2018-07-21T02:08:57.581Z,6.47
2018-07-21T02:11:35.412Z,7.28
2018-07-21T02:14:05.708Z,7.05
2018-07-21T02:16:34.952Z,7.42
2018-07-21T02:19:04.629Z,7.50
2018-07-21T02:21:33.977Z,7.45
2018-07-21T02:24:03.447Z,8.28
2018-07-21T02:26:38.642Z,8.03
2018-07-21T02:29:08.645Z,7.55
2018-07-21T02:31:38.152Z,7.67
2018-07-21T02:34:12.186Z,6.83
2018-07-21T02:36:42.784Z,7.50
2018-07-21T02:39:12.754Z,8.00
2018-07-21T02:41:44.201Z,6.78
2018-07-21T02:44:14.663Z,6.92
2018-07-21T02:46:54.459Z,6.92
2018-07-21T02:49:26.235Z,6.80
2018-07-21T02:51:57.337Z,7.60
2018-07-21T02:54:33.308Z,8.23
2018-07-21T02:57:10.654Z,7.90
2018-07-21T02:59:39.865Z,8.10
2018-07-21T03:02:09.225Z,7.45
2018-07-21T03:04:38.449Z,6.87
2018-07-21T03:07:07.788Z,6.85
2018-07-21T03:09:37.036Z,6.25
2018-07-21T03:12:06.294Z,5.80
2018-07-21T03:14:35.543Z,5.75
2018-07-21T03:17:04.814Z,6.67
2018-07-21T03:19:34.034Z,7.10
2018-07-21T03:22:03.294Z,6.78
2018-07-21T03:24:32.527Z,6.28
2018-07-21T03:27:01.837Z,6.53
2018-07-21T03:29:31.048Z,7.62
2018-07-21T03:32:00.288Z,6.65
2018-07-21T03:34:29.528Z,6.22
2018-07-21T03:36:58.782Z,6.90
2018-07-21T03:39:27.995Z,7.80
2018-07-21T03:41:57.269Z,6.10
2018-07-21T03:44:26.736Z,6.28
2018-07-21T05:06:46.059Z,6.83
2018-07-21T05:09:15.319Z,5.95
2018-07-21T05:11:44.508Z,6.47
2018-07-21T05:14:13.728Z,8.53
2018-07-21T05:16:42.683Z,6.42
2018-07-21T05:19:11.897Z,6.45
2018-07-21T05:21:41.097Z,5.95
2018-07-21T05:24:10.288Z,7.22
2018-07-21T05:26:39.522Z,8.43
2018-07-21T05:29:08.740Z,6.20
2018-07-21T05:31:37.924Z,6.47
2018-07-21T05:34:07.206Z,6.70
2018-07-21T05:36:36.439Z,6.97
2018-07-21T05:39:09.071Z,6.15
2018-07-21T05:41:38.272Z,6.25
2018-07-21T05:44:07.527Z,6.97
2018-07-21T05:46:37.164Z,5.83
2018-07-21T05:49:06.791Z,6.72
2018-07-21T05:51:36.019Z,6.60
2018-07-21T05:54:05.228Z,7.28
2018-07-21T05:56:34.440Z,6.15
2018-07-21T05:59:03.674Z,6.53
2018-07-21T06:01:32.872Z,6.33
2018-07-21T06:04:02.157Z,6.50
2018-07-21T06:06:31.400Z,6.08
2018-07-21T06:09:00.656Z,6.40
2018-07-21T06:11:29.861Z,8.73
2018-07-21T06:13:59.099Z,6.97
2018-07-21T06:16:28.315Z,6.78
2018-07-21T06:18:57.494Z,7.30
2018-07-21T06:21:26.732Z,8.45
2018-07-21T06:23:56.005Z,6.87
2018-07-21T06:26:25.245Z,6.70
2018-07-21T06:28:54.579Z,8.55
2018-07-21T06:31:23.796Z,7.05
2018-07-21T06:33:53.162Z,9.23
2018-07-21T06:36:22.745Z,7.40
2018-07-21T06:38:51.960Z,7.20
2018-07-21T06:41:21.179Z,6.60
2018-07-21T06:43:50.426Z,6.75
2018-07-21T06:46:19.714Z,8.03
2018-07-21T06:48:48.946Z,6.72
2018-07-21T06:51:18.178Z,6.72
2018-07-21T06:53:47.459Z,6.90
2018-07-21T06:56:16.667Z,7.65
2018-07-21T06:58:45.867Z,7.00
2018-07-21T07:01:15.920Z,9.33
2018-07-21T07:03:45.160Z,6.70
2018-07-21T07:06:14.408Z,9.75
2018-07-21T07:08:43.646Z,7.35
2018-07-21T07:11:13.206Z,6.70
2018-07-21T07:13:42.413Z,6.70
2018-07-21T07:16:11.630Z,7.03
2018-07-21T07:18:40.864Z,8.08
2018-07-21T07:21:10.151Z,6.87
2018-07-21T07:23:39.360Z,8.00
2018-07-21T07:26:08.616Z,7.65
2018-07-21T07:28:37.844Z,6.80
2018-07-21T07:31:07.105Z,7.90
2018-07-21T07:33:36.323Z,7.30
2018-07-21T07:36:05.520Z,7.47
2018-07-21T07:38:34.735Z,7.28
2018-07-21T07:41:03.974Z,10.15
2018-07-21T07:43:33.179Z,8.18
2018-07-21T07:46:02.405Z,10.48
2018-07-21T07:48:31.631Z,9.00
2018-07-21T07:51:00.892Z,8.83
2018-07-21T07:53:30.170Z,9.28
2018-07-21T07:55:59.424Z,9.25
2018-07-21T07:58:28.657Z,8.93
2018-07-21T08:00:57.966Z,10.70
2018-07-21T08:03:27.259Z,9.88
2018-07-21T08:05:56.493Z,10.65
2018-07-21T08:08:25.784Z,9.85
2018-07-21T08:10:54.984Z,10.68
2018-07-21T08:13:24.197Z,10.20
2018-07-21T08:15:53.599Z,10.60
2018-07-21T08:18:22.857Z,10.50
2018-07-21T08:20:52.083Z,11.10
2018-07-21T08:23:21.340Z,10.72
2018-07-21T08:25:50.577Z,11.18
2018-07-21T08:28:19.869Z,11.25
2018-07-21T08:30:49.263Z,11.63
2018-07-21T08:33:18.591Z,13.22
2018-07-21T08:35:47.861Z,11.10
2018-07-21T08:38:17.087Z,10.08
2018-07-21T08:40:46.333Z,11.68
2018-07-21T08:43:16.311Z,11.28
2018-07-21T08:45:45.613Z,11.78
2018-07-21T08:48:14.873Z,11.28
2018-07-21T08:50:44.480Z,13.15
2018-07-21T08:53:13.757Z,11.43
2018-07-21T08:55:43.054Z,12.28
2018-07-21T08:58:12.516Z,12.65
2018-07-21T09:00:41.818Z,11.68
2018-07-21T09:03:11.109Z,12.35
2018-07-21T09:05:40.115Z,12.53
2018-07-21T09:08:09.406Z,12.30
2018-07-21T09:10:38.800Z,12.82
2018-07-21T09:13:08.180Z,13.50
2018-07-21T09:15:37.350Z,14.03
2018-07-21T09:18:06.604Z,12.88
2018-07-21T09:20:35.848Z,13.35
2018-07-21T09:23:05.232Z,14.23
2018-07-21T09:25:34.452Z,14.33
2018-07-21T09:28:03.655Z,13.90
2018-07-21T09:30:32.896Z,13.68
2018-07-21T09:33:02.205Z,12.95
2018-07-21T09:35:31.452Z,12.23
2018-07-21T09:38:00.688Z,12.18
2018-07-21T09:40:29.978Z,12.05
2018-07-21T09:42:59.202Z,12.73
2018-07-21T09:45:28.465Z,13.58
2018-07-21T09:47:57.686Z,12.50
2018-07-21T09:50:26.997Z,13.18
2018-07-21T09:52:56.270Z,13.18
2018-07-21T09:55:25.544Z,13.05
2018-07-21T09:57:54.943Z,13.03
2018-07-21T10:00:29.600Z,13.78
2018-07-21T10:02:58.821Z,14.30
2018-07-21T10:05:28.072Z,14.85
2018-07-21T10:07:57.309Z,15.75
2018-07-21T10:10:26.553Z,14.73
2018-07-21T10:12:55.843Z,15.80
2018-07-21T10:15:25.141Z,15.78
2018-07-21T10:17:54.554Z,14.95
2018-07-21T10:20:23.776Z,15.78
2018-07-21T10:22:53.008Z,16.60
2018-07-21T10:25:27.596Z,16.17
2018-07-21T10:28:02.052Z,15.80
2018-07-21T10:30:31.256Z,16.55
2018-07-21T10:33:00.496Z,17.37
2018-07-21T10:35:29.718Z,16.17
2018-07-21T10:37:58.982Z,14.85
2018-07-21T10:40:28.241Z,16.12
2018-07-21T10:42:57.503Z,15.18
2018-07-21T10:45:26.744Z,15.58
2018-07-21T10:47:55.951Z,15.55
2018-07-21T10:50:25.276Z,14.78
2018-07-21T10:52:54.536Z,14.13
2018-07-21T10:55:23.755Z,13.28
2018-07-21T10:57:53.196Z,13.65
2018-07-21T11:00:22.533Z,11.60
2018-07-21T11:02:51.724Z,11.53
2018-07-21T11:05:21.044Z,11.93
2018-07-21T11:07:50.297Z,11.15
2018-07-21T11:10:19.571Z,11.83
2018-07-21T11:12:48.822Z,11.25
2018-07-21T11:15:18.148Z,11.65
2018-07-21T11:17:47.349Z,11.75
2018-07-21T11:20:16.616Z,10.18
2018-07-21T11:22:45.853Z,12.95
2018-07-21T11:25:15.081Z,13.53
2018-07-21T11:27:44.341Z,12.85
2018-07-21T11:30:13.571Z,14.25
2018-07-21T11:32:43.084Z,14.58
2018-07-21T11:35:12.464Z,14.18
2018-07-21T11:37:41.667Z,14.53
2018-07-21T11:40:11.831Z,15.13
2018-07-21T11:42:41.098Z,15.98
2018-07-21T11:45:10.307Z,14.87
2018-07-21T11:47:41.643Z,13.45
2018-07-21T11:50:10.897Z,14.78
2018-07-21T11:52:40.134Z,15.30
2018-07-21T11:55:09.327Z,13.80
2018-07-21T11:57:38.573Z,14.07
2018-07-21T12:00:07.985Z,13.35
2018-07-21T12:02:37.201Z,13.22
2018-07-21T12:05:06.494Z,25.60
2018-07-21T12:07:35.443Z,13.43
2018-07-21T12:10:04.825Z,13.38
2018-07-21T12:12:34.203Z,14.15
2018-07-21T12:15:03.469Z,13.60
2018-07-21T12:17:32.793Z,12.70
2018-07-21T12:20:02.066Z,16.17
2018-07-21T12:22:31.325Z,13.68
2018-07-21T12:25:00.580Z,14.45
2018-07-21T12:27:29.619Z,11.78
2018-07-21T12:29:58.967Z,11.97
2018-07-21T12:32:28.187Z,10.25
2018-07-21T12:34:57.417Z,13.35
2018-07-21T12:37:26.448Z,14.65
2018-07-21T12:39:55.777Z,14.28
2018-07-21T12:42:25.000Z,13.43
2018-07-21T12:44:54.338Z,15.50
2018-07-21T12:47:23.577Z,18.42
2018-07-21T12:49:52.601Z,16.45
2018-07-21T12:52:21.821Z,15.13
2018-07-21T12:54:51.088Z,16.73
2018-07-21T12:57:20.361Z,20.05
2018-07-21T12:59:49.609Z,21.35
2018-07-21T13:02:18.825Z,21.55
2018-07-21T13:04:48.063Z,19.73
2018-07-21T13:07:17.298Z,20.92
2018-07-21T13:09:46.637Z,18.48
2018-07-21T13:12:15.831Z,17.00
2018-07-21T13:14:45.089Z,17.15
2018-07-21T13:17:14.357Z,16.27
2018-07-21T13:19:43.721Z,17.70
2018-07-21T13:22:12.957Z,15.98
2018-07-21T13:24:42.309Z,15.80
2018-07-21T13:27:11.534Z,16.60
2018-07-21T13:29:40.790Z,17.92
2018-07-21T13:32:10.313Z,18.05
2018-07-21T13:34:39.552Z,17.15
2018-07-21T13:37:08.751Z,17.57
2018-07-21T13:39:38.085Z,17.40
2018-07-21T13:42:07.503Z,17.45
2018-07-21T13:44:36.724Z,16.70
2018-07-21T13:47:06.073Z,15.50
2018-07-21T13:49:35.304Z,15.43
2018-07-21T13:52:04.505Z,20.57
2018-07-21T13:54:33.758Z,15.60
2018-07-21T13:57:03.011Z,16.27
2018-07-21T13:59:32.353Z,15.65
2018-07-21T14:02:01.606Z,15.95
2018-07-21T14:04:30.856Z,15.10
2018-07-21T14:07:00.175Z,12.05
2018-07-21T14:09:29.411Z,13.60
2018-07-21T14:11:58.628Z,12.37
2018-07-21T14:14:27.869Z,11.90
2018-07-21T14:16:57.206Z,12.05
2018-07-21T14:19:26.473Z,12.90
2018-07-21T14:21:56.118Z,11.95
2018-07-21T14:24:25.632Z,13.62
2018-07-21T14:26:54.891Z,13.10
2018-07-21T14:29:24.117Z,12.37
2018-07-21T14:31:53.351Z,13.10
2018-07-21T14:34:22.551Z,12.23
2018-07-21T14:36:51.903Z,12.63
2018-07-21T14:39:21.148Z,14.13
2018-07-21T14:41:50.470Z,12.98
2018-07-21T14:44:19.701Z,12.70
2018-07-21T14:46:48.919Z,12.30
2018-07-21T14:49:18.156Z,12.40
2018-07-21T14:51:47.416Z,11.88
2018-07-21T14:54:16.653Z,17.87
2018-07-21T14:56:45.947Z,12.35
2018-07-21T14:59:15.149Z,11.73
2018-07-21T15:01:44.575Z,11.30
2018-07-21T15:04:13.822Z,11.30
2018-07-21T15:06:43.054Z,11.55
2018-07-21T15:09:13.063Z,13.83
2018-07-21T15:11:42.470Z,11.20
2018-07-21T15:14:11.708Z,12.03
2018-07-21T15:16:41.137Z,13.32
2018-07-21T15:19:10.375Z,13.28
2018-07-21T15:21:39.660Z,12.88
2018-07-21T15:24:08.940Z,12.55
2018-07-21T15:26:38.155Z,12.07
2018-07-21T15:29:07.457Z,13.40
2018-07-21T15:31:36.692Z,13.28
2018-07-21T15:34:05.932Z,12.60
2018-07-21T15:36:35.187Z,12.03
2018-07-21T15:39:06.299Z,12.80
2018-07-21T15:41:35.536Z,12.03
2018-07-21T15:44:04.804Z,13.58
2018-07-21T15:46:34.068Z,12.75
2018-07-21T15:49:03.249Z,12.10
2018-07-21T15:51:32.499Z,12.23
2018-07-21T15:54:01.797Z,12.47
2018-07-21T15:56:31.027Z,12.50
2018-07-21T15:59:00.237Z,11.83
2018-07-21T16:01:29.529Z,11.43
2018-07-21T16:03:58.776Z,11.75
2018-07-21T16:06:27.992Z,10.85
2018-07-21T16:08:57.245Z,10.70
2018-07-21T16:11:26.260Z,10.98
2018-07-21T16:13:55.462Z,10.38
2018-07-21T16:16:24.669Z,10.10
2018-07-21T16:18:54.054Z,10.50
2018-07-21T16:21:23.326Z,10.15
2018-07-21T16:23:52.573Z,10.35
2018-07-21T16:26:21.865Z,9.53
2018-07-21T16:28:51.103Z,10.28
2018-07-21T16:31:20.581Z,10.58
2018-07-21T16:33:49.890Z,11.45
2018-07-21T16:36:19.525Z,11.30
2018-07-21T16:38:48.807Z,11.20
2018-07-21T16:41:18.086Z,11.55
2018-07-21T16:43:47.328Z,11.78
2018-07-21T16:46:16.605Z,11.25
2018-07-21T16:48:45.919Z,11.73
2018-07-21T16:51:15.147Z,10.90
2018-07-21T16:53:44.110Z,11.60
2018-07-21T16:56:13.454Z,11.43
2018-07-21T16:58:42.671Z,11.35
2018-07-21T17:01:11.913Z,11.68
2018-07-21T17:03:41.133Z,11.33
2018-07-21T17:06:10.362Z,10.28
2018-07-21T17:08:39.595Z,10.58
2018-07-21T17:11:08.867Z,10.23
2018-07-21T17:13:38.064Z,9.48
2018-07-21T17:16:07.308Z,10.82
2018-07-21T17:18:36.697Z,10.93
2018-07-21T17:21:05.964Z,10.70
2018-07-21T17:23:34.941Z,10.32
2018-07-21T17:26:04.224Z,10.13
2018-07-21T17:28:33.666Z,9.10
2018-07-21T17:31:02.917Z,10.30
2018-07-21T17:33:32.260Z,10.30
2018-07-21T17:36:01.508Z,10.48
2018-07-21T17:38:30.767Z,10.00
2018-07-21T17:41:00.397Z,10.55
2018-07-21T17:43:29.635Z,11.10
2018-07-21T17:45:59.022Z,10.78
2018-07-21T17:48:28.241Z,10.82
2018-07-21T17:50:57.526Z,10.18
2018-07-21T17:53:26.525Z,10.53
2018-07-21T17:55:55.759Z,10.18
2018-07-21T17:58:25.023Z,11.18
2018-07-21T18:00:54.305Z,11.30
2018-07-21T18:03:23.556Z,11.08
2018-07-21T18:05:52.853Z,10.60
2018-07-21T18:08:22.083Z,10.40
2018-07-21T18:10:51.344Z,10.58
2018-07-21T18:13:20.581Z,11.40
2018-07-21T18:15:49.852Z,11.03
2018-07-21T18:18:19.093Z,11.12
2018-07-21T18:20:48.346Z,10.95
2018-07-21T18:23:17.953Z,10.25
2018-07-21T18:25:47.220Z,12.18
2018-07-21T18:28:16.420Z,11.33
2018-07-21T18:30:45.669Z,12.28
2018-07-21T18:33:14.848Z,12.40
2018-07-21T18:35:44.066Z,12.10
2018-07-21T18:38:13.245Z,13.53
2018-07-21T18:40:42.505Z,12.23
2018-07-21T18:43:11.707Z,12.75
2018-07-21T18:45:40.937Z,12.20
2018-07-21T18:48:10.133Z,12.50
2018-07-21T18:50:39.385Z,12.53
2018-07-21T18:53:09.204Z,13.08
2018-07-21T18:55:38.437Z,12.95
2018-07-21T18:58:07.632Z,13.50
2018-07-21T19:00:36.889Z,13.55
2018-07-21T19:03:06.112Z,13.28
2018-07-21T19:05:35.360Z,13.35
2018-07-21T19:08:04.583Z,12.68
2018-07-21T19:10:33.785Z,14.45
2018-07-21T19:13:03.024Z,14.10
2018-07-21T19:15:37.432Z,13.78
2018-07-21T19:18:06.725Z,15.50
2018-07-21T19:20:41.412Z,13.83
2018-07-21T19:23:10.686Z,12.75
2018-07-21T19:25:45.248Z,12.75
2018-07-21T19:28:20.538Z,12.25
2018-07-21T19:30:51.134Z,13.10
2018-07-21T19:33:24.248Z,14.63
2018-07-21T19:35:53.460Z,14.20
2018-07-21T19:38:22.692Z,15.20
2018-07-21T19:40:51.914Z,16.35
2018-07-21T19:43:21.222Z,15.45
2018-07-21T19:45:50.420Z,15.63
2018-07-21T19:48:19.728Z,16.45
2018-07-21T19:50:48.916Z,16.45
2018-07-21T19:53:18.183Z,18.85
2018-07-21T19:55:47.411Z,19.05
2018-07-21T19:58:16.830Z,19.95
2018-07-21T20:00:46.088Z,19.45
2018-07-21T20:03:15.341Z,20.60
2018-07-21T20:05:44.711Z,19.52
2018-07-21T20:08:13.989Z,20.00
2018-07-21T20:10:43.185Z,20.25
2018-07-21T20:13:15.368Z,21.20
2018-07-21T20:15:44.632Z,16.82
2018-07-21T20:18:13.937Z,15.18
2018-07-21T20:20:43.163Z,17.23
2018-07-21T20:23:12.450Z,16.32
2018-07-21T20:25:41.691Z,17.85
2018-07-21T20:28:10.985Z,16.02
2018-07-21T20:30:40.193Z,16.80
2018-07-21T20:33:09.471Z,15.85
2018-07-21T20:35:38.672Z,15.10
2018-07-21T20:38:07.909Z,12.68
2018-07-21T20:40:37.289Z,14.35
2018-07-21T20:43:06.579Z,15.40
2018-07-21T20:45:35.786Z,24.43
2018-07-21T20:48:05.024Z,22.17
2018-07-21T20:50:34.354Z,20.00
2018-07-21T20:53:03.653Z,19.67
2018-07-21T20:55:32.897Z,21.62
2018-07-21T20:58:02.671Z,19.50
2018-07-21T21:00:32.865Z,20.52
2018-07-21T21:03:02.245Z,19.52
2018-07-21T21:05:31.545Z,19.40
2018-07-21T21:08:00.741Z,18.02
2018-07-21T21:10:29.957Z,17.45
2018-07-21T21:12:59.201Z,17.57
2018-07-21T21:15:28.432Z,17.17
2018-07-21T21:17:57.684Z,18.90
2018-07-21T21:20:26.922Z,20.23
2018-07-21T21:22:56.199Z,19.10
2018-07-21T21:25:25.421Z,18.92
2018-07-21T21:27:54.728Z,18.95
2018-07-21T21:30:23.928Z,20.02
2018-07-21T21:32:53.188Z,18.40
2018-07-21T21:35:22.457Z,17.30
2018-07-21T21:37:51.641Z,17.57
2018-07-21T21:40:20.853Z,16.48
2018-07-21T21:42:50.223Z,18.07
2018-07-21T21:45:19.520Z,17.92
2018-07-21T21:47:48.821Z,18.32
2018-07-21T21:50:18.024Z,18.00
2018-07-21T21:52:47.260Z,19.32
2018-07-21T21:55:16.511Z,18.45
2018-07-21T21:57:45.688Z,17.85
2018-07-21T22:00:15.105Z,18.82
2018-07-21T22:02:44.527Z,17.92
2018-07-21T22:05:14.123Z,17.42
2018-07-21T22:07:43.327Z,19.23
2018-07-21T22:10:12.612Z,17.65
2018-07-21T22:12:41.877Z,19.00
2018-07-21T22:15:15.821Z,18.30
2018-07-21T22:17:45.170Z,19.75
2018-07-21T22:20:14.437Z,18.50
2018-07-21T22:22:43.914Z,18.35
2018-07-21T22:25:13.195Z,18.05
2018-07-21T22:27:42.186Z,17.75
2018-07-21T22:30:18.432Z,18.30
2018-07-21T22:32:47.692Z,17.23
2018-07-21T22:35:17.385Z,17.48
2018-07-21T22:37:46.647Z,17.82
2018-07-21T22:40:15.892Z,17.45
2018-07-21T22:42:45.124Z,17.90
2018-07-21T22:45:14.338Z,17.70
2018-07-21T22:47:43.552Z,17.48
2018-07-21T22:50:12.891Z,17.10
2018-07-21T22:52:42.103Z,17.05
2018-07-21T22:55:11.338Z,16.48
2018-07-21T22:57:40.665Z,17.62
2018-07-21T23:00:10.134Z,18.90
2018-07-21T23:02:40.164Z,18.00
2018-07-21T23:05:09.840Z,16.35
2018-07-21T23:07:39.068Z,16.67
2018-07-21T23:10:08.550Z,17.80
2018-07-21T23:12:37.825Z,17.25
2018-07-21T23:15:08.446Z,18.37
2018-07-21T23:17:37.682Z,18.07
2018-07-21T23:20:08.247Z,18.57
2018-07-21T23:22:37.642Z,17.15
2018-07-21T23:25:07.081Z,16.60
2018-07-21T23:27:36.665Z,17.98
2018-07-21T23:30:06.200Z,18.12
2018-07-21T23:32:35.627Z,18.00
2018-07-21T23:35:04.970Z,17.85
2018-07-21T23:37:34.176Z,16.12
2018-07-21T23:40:03.426Z,16.73
2018-07-21T23:42:32.699Z,16.67
2018-07-21T23:45:01.972Z,16.57
2018-07-21T23:47:31.199Z,15.88
2018-07-21T23:50:00.697Z,15.48
2018-07-21T23:52:29.902Z,15.70
2018-07-21T23:54:59.108Z,15.13
2018-07-21T23:57:28.352Z,16.20
2018-07-21T23:59:57.552Z,21.27
